sensor_id;sensor_type;location;lat;lon;timestamp;pressure;altitude;pressure_sealevel;temperature;humidity
54022;BME280;39936;51.058;17.220;2023-08-08T00:01:59;101211.95;;;13.52;83.79
54022;BME280;39936;51.058;17.220;2023-08-08T00:05:40;101226.33;;;13.68;83.19
54022;BME280;39936;51.058;17.220;2023-08-08T00:08:59;101224.39;;;13.71;83.35
54022;BME280;39936;51.058;17.220;2023-08-08T00:12:35;101222.54;;;13.69;83.21
54022;BME280;39936;51.058;17.220;2023-08-08T00:16:29;101226.60;;;13.73;82.78
54022;BME280;39936;51.058;17.220;2023-08-08T00:19:48;101233.24;;;13.79;82.65
54022;BME280;39936;51.058;17.220;2023-08-08T00:23:27;101232.42;;;13.81;82.39
54022;BME280;39936;51.058;17.220;2023-08-08T00:27:16;101196.75;;;13.65;81.08
54022;BME280;39936;51.058;17.220;2023-08-08T00:30:50;101242.29;;;13.87;81.88
54022;BME280;39936;51.058;17.220;2023-08-08T00:34:07;101236.51;;;13.80;81.44
54022;BME280;39936;51.058;17.220;2023-08-08T00:37:59;101220.12;;;13.72;81.98
54022;BME280;39936;51.058;17.220;2023-08-08T00:41:41;101212.66;;;13.57;81.95
54022;BME280;39936;51.058;17.220;2023-08-08T00:49:14;101247.30;;;13.65;83.04
54022;BME280;39936;51.058;17.220;2023-08-08T00:52:55;101254.45;;;13.61;82.90
54022;BME280;39936;51.058;17.220;2023-08-08T00:56:27;101254.12;;;13.59;82.78
54022;BME280;39936;51.058;17.220;2023-08-08T01:00:01;101250.91;;;13.50;83.43
54022;BME280;39936;51.058;17.220;2023-08-08T01:03:41;101254.93;;;13.48;83.25
54022;BME280;39936;51.058;17.220;2023-08-08T01:07:43;101245.05;;;13.38;83.34
54022;BME280;39936;51.058;17.220;2023-08-08T01:11:28;101253.52;;;13.42;82.90
54022;BME280;39936;51.058;17.220;2023-08-08T01:15:07;101262.08;;;13.40;83.61
54022;BME280;39936;51.058;17.220;2023-08-08T01:18:26;101264.09;;;13.34;83.59
54022;BME280;39936;51.058;17.220;2023-08-08T01:22:09;101266.27;;;13.30;84.09
54022;BME280;39936;51.058;17.220;2023-08-08T01:25:31;101266.26;;;13.22;84.27
54022;BME280;39936;51.058;17.220;2023-08-08T01:28:54;101265.22;;;13.12;84.84
54022;BME280;39936;51.058;17.220;2023-08-08T01:32:42;101234.10;;;12.88;85.35
54022;BME280;39936;51.058;17.220;2023-08-08T01:36:42;101235.28;;;12.76;86.06
54022;BME280;39936;51.058;17.220;2023-08-08T01:40:46;101264.41;;;12.73;87.56
54022;BME280;39936;51.058;17.220;2023-08-08T01:44:57;101263.19;;;12.59;88.34
54022;BME280;39936;51.058;17.220;2023-08-08T01:48:51;101257.44;;;12.56;88.57
54022;BME280;39936;51.058;17.220;2023-08-08T01:52:09;101254.14;;;12.48;88.98
54022;BME280;39936;51.058;17.220;2023-08-08T01:56:01;101259.08;;;12.45;89.15
54022;BME280;39936;51.058;17.220;2023-08-08T01:59:40;101255.43;;;12.37;89.58
54022;BME280;39936;51.058;17.220;2023-08-08T02:03:22;101247.63;;;12.34;89.41
54022;BME280;39936;51.058;17.220;2023-08-08T02:07:09;101253.99;;;12.25;90.37
54022;BME280;39936;51.058;17.220;2023-08-08T02:10:44;101258.70;;;12.15;90.87
54022;BME280;39936;51.058;17.220;2023-08-08T02:14:41;101255.29;;;12.09;91.03
54022;BME280;39936;51.058;17.220;2023-08-08T02:18:41;101264.51;;;12.05;91.75
54022;BME280;39936;51.058;17.220;2023-08-08T02:22:53;101267.85;;;12.03;91.82
54022;BME280;39936;51.058;17.220;2023-08-08T02:26:12;101235.60;;;11.81;91.98
54022;BME280;39936;51.058;17.220;2023-08-08T02:29:43;101268.68;;;11.95;92.08
54022;BME280;39936;51.058;17.220;2023-08-08T02:33:23;101267.79;;;11.92;92.46
54022;BME280;39936;51.058;17.220;2023-08-08T02:36:44;101268.56;;;11.84;92.65
54022;BME280;39936;51.058;17.220;2023-08-08T02:40:00;101271.95;;;11.78;93.23
54022;BME280;39936;51.058;17.220;2023-08-08T02:43:41;101271.45;;;11.74;93.72
54022;BME280;39936;51.058;17.220;2023-08-08T02:47:09;101273.06;;;11.73;93.97
54022;BME280;39936;51.058;17.220;2023-08-08T02:50:26;101276.35;;;11.68;94.16
54022;BME280;39936;51.058;17.220;2023-08-08T02:54:53;101276.91;;;11.64;94.32
54022;BME280;39936;51.058;17.220;2023-08-08T02:58:39;101278.87;;;11.59;94.11
54022;BME280;39936;51.058;17.220;2023-08-08T03:01:52;101256.55;;;11.42;94.30
54022;BME280;39936;51.058;17.220;2023-08-08T03:05:27;101287.60;;;11.51;94.50
54022;BME280;39936;51.058;17.220;2023-08-08T03:08:47;101288.07;;;11.44;95.10
54022;BME280;39936;51.058;17.220;2023-08-08T03:12:15;101291.58;;;11.43;94.67
54022;BME280;39936;51.058;17.220;2023-08-08T03:15:33;101295.36;;;11.40;94.65
54022;BME280;39936;51.058;17.220;2023-08-08T03:19:12;101299.37;;;11.43;94.09
54022;BME280;39936;51.058;17.220;2023-08-08T03:23:02;101301.66;;;11.40;94.05
54022;BME280;39936;51.058;17.220;2023-08-08T03:26:44;101308.84;;;11.39;93.97
54022;BME280;39936;51.058;17.220;2023-08-08T03:30:00;101302.13;;;11.32;94.25
54022;BME280;39936;51.058;17.220;2023-08-08T03:33:39;101313.50;;;11.34;94.07
54022;BME280;39936;51.058;17.220;2023-08-08T03:37:23;101312.16;;;11.30;94.00
54022;BME280;39936;51.058;17.220;2023-08-08T03:41:23;101313.87;;;11.34;93.90
54022;BME280;39936;51.058;17.220;2023-08-08T03:45:17;101316.48;;;11.41;93.00
54022;BME280;39936;51.058;17.220;2023-08-08T03:49:27;101320.96;;;11.47;92.90
54022;BME280;39936;51.058;17.220;2023-08-08T03:53:25;101329.32;;;11.69;91.93
54022;BME280;39936;51.058;17.220;2023-08-08T03:57:08;101321.59;;;12.11;89.18
54022;BME280;39936;51.058;17.220;2023-08-08T04:00:25;101302.07;;;12.33;87.20
54022;BME280;39936;51.058;17.220;2023-08-08T04:04:05;101322.88;;;13.11;85.07
54022;BME280;39936;51.058;17.220;2023-08-08T04:07:36;101299.05;;;14.01;82.18
54022;BME280;39936;51.058;17.220;2023-08-08T04:11:11;101312.47;;;15.00;77.95
54022;BME280;39936;51.058;17.220;2023-08-08T04:15:06;101316.13;;;15.69;70.16
54022;BME280;39936;51.058;17.220;2023-08-08T04:18:43;101316.95;;;16.04;69.41
54022;BME280;39936;51.058;17.220;2023-08-08T04:22:22;101309.84;;;16.59;67.66
54022;BME280;39936;51.058;17.220;2023-08-08T04:25:40;101311.64;;;17.12;63.68
54022;BME280;39936;51.058;17.220;2023-08-08T04:29:19;101313.91;;;17.55;61.84
54022;BME280;39936;51.058;17.220;2023-08-08T04:32:56;101309.68;;;17.85;60.60
54022;BME280;39936;51.058;17.220;2023-08-08T04:36:45;101303.46;;;17.57;59.73
54022;BME280;39936;51.058;17.220;2023-08-08T04:40:42;101325.52;;;17.90;61.91
54022;BME280;39936;51.058;17.220;2023-08-08T04:44:13;101329.57;;;18.23;58.36
54022;BME280;39936;51.058;17.220;2023-08-08T04:47:56;101340.70;;;17.31;60.25
54022;BME280;39936;51.058;17.220;2023-08-08T04:51:43;101352.69;;;16.32;63.16
54022;BME280;39936;51.058;17.220;2023-08-08T04:55:21;101358.20;;;15.08;67.28
54022;BME280;39936;51.058;17.220;2023-08-08T04:59:26;101345.81;;;14.55;70.22
54022;BME280;39936;51.058;17.220;2023-08-08T05:02:47;101368.38;;;14.68;71.58
54022;BME280;39936;51.058;17.220;2023-08-08T05:07:00;101368.80;;;14.55;71.56
54022;BME280;39936;51.058;17.220;2023-08-08T05:10:44;101375.15;;;14.45;71.92
54022;BME280;39936;51.058;17.220;2023-08-08T05:14:33;101381.44;;;14.34;72.53
54022;BME280;39936;51.058;17.220;2023-08-08T05:18:27;101383.29;;;14.23;75.69
54022;BME280;39936;51.058;17.220;2023-08-08T05:22:04;101351.31;;;14.46;75.88
54022;BME280;39936;51.058;17.220;2023-08-08T05:25:44;101380.24;;;15.12;75.31
54022;BME280;39936;51.058;17.220;2023-08-08T05:29:44;101374.41;;;15.18;72.62
54022;BME280;39936;51.058;17.220;2023-08-08T05:34:08;101377.76;;;15.12;72.45
54022;BME280;39936;51.058;17.220;2023-08-08T05:37:39;101375.26;;;15.24;72.33
54022;BME280;39936;51.058;17.220;2023-08-08T05:41:52;101348.21;;;15.40;72.86
54022;BME280;39936;51.058;17.220;2023-08-08T05:45:26;101375.57;;;15.55;71.28
54022;BME280;39936;51.058;17.220;2023-08-08T05:49:05;101378.62;;;15.44;70.88
54022;BME280;39936;51.058;17.220;2023-08-08T05:53:21;101385.01;;;15.11;73.45
54022;BME280;39936;51.058;17.220;2023-08-08T05:57:25;101385.93;;;14.79;75.89
54022;BME280;39936;51.058;17.220;2023-08-08T06:01:15;101394.41;;;14.80;74.72
54022;BME280;39936;51.058;17.220;2023-08-08T06:04:37;101389.86;;;14.90;75.00
54022;BME280;39936;51.058;17.220;2023-08-08T06:08:14;101384.38;;;15.34;73.68
54022;BME280;39936;51.058;17.220;2023-08-08T06:11:48;101378.45;;;15.76;73.98
54022;BME280;39936;51.058;17.220;2023-08-08T06:15:40;101377.77;;;16.12;74.40
54022;BME280;39936;51.058;17.220;2023-08-08T06:18:55;101375.46;;;16.24;72.95
54022;BME280;39936;51.058;17.220;2023-08-08T06:22:42;101383.02;;;16.18;71.31
54022;BME280;39936;51.058;17.220;2023-08-08T06:26:20;101380.80;;;16.28;71.36
54022;BME280;39936;51.058;17.220;2023-08-08T06:30:11;101376.64;;;16.55;72.71
54022;BME280;39936;51.058;17.220;2023-08-08T06:33:50;101373.68;;;16.67;71.66
54022;BME280;39936;51.058;17.220;2023-08-08T06:37:26;101372.66;;;16.77;68.47
54022;BME280;39936;51.058;17.220;2023-08-08T06:40:45;101369.67;;;16.77;70.23
54022;BME280;39936;51.058;17.220;2023-08-08T06:44:04;101376.27;;;17.03;69.22
54022;BME280;39936;51.058;17.220;2023-08-08T06:47:21;101368.80;;;16.89;65.68
54022;BME280;39936;51.058;17.220;2023-08-08T06:51:00;101363.89;;;16.85;67.20
54022;BME280;39936;51.058;17.220;2023-08-08T06:58:41;101366.65;;;17.26;64.79
54022;BME280;39936;51.058;17.220;2023-08-08T07:01:56;101366.81;;;17.16;63.78
54022;BME280;39936;51.058;17.220;2023-08-08T07:05:14;101357.87;;;17.11;61.27
54022;BME280;39936;51.058;17.220;2023-08-08T07:08:32;101353.22;;;17.24;61.36
54022;BME280;39936;51.058;17.220;2023-08-08T07:11:47;101361.58;;;17.08;63.06
54022;BME280;39936;51.058;17.220;2023-08-08T07:15:27;101354.50;;;17.34;62.63
54022;BME280;39936;51.058;17.220;2023-08-08T07:18:55;101355.91;;;17.26;62.05
54022;BME280;39936;51.058;17.220;2023-08-08T07:22:16;101353.97;;;17.13;61.22
54022;BME280;39936;51.058;17.220;2023-08-08T07:25:58;101355.63;;;17.04;62.36
54022;BME280;39936;51.058;17.220;2023-08-08T07:29:16;101352.07;;;16.74;59.64
54022;BME280;39936;51.058;17.220;2023-08-08T07:36:27;101351.87;;;16.71;62.17
54022;BME280;39936;51.058;17.220;2023-08-08T07:39:41;101347.77;;;16.78;61.82
54022;BME280;39936;51.058;17.220;2023-08-08T07:43:16;101355.34;;;16.72;60.92
54022;BME280;39936;51.058;17.220;2023-08-08T07:46:33;101361.55;;;16.84;63.03
54022;BME280;39936;51.058;17.220;2023-08-08T07:50:34;101360.50;;;16.91;61.82
54022;BME280;39936;51.058;17.220;2023-08-08T07:54:28;101361.79;;;16.82;59.73
54022;BME280;39936;51.058;17.220;2023-08-08T07:58:16;101361.70;;;16.62;55.78
54022;BME280;39936;51.058;17.220;2023-08-08T08:01:34;101360.95;;;16.36;57.57
54022;BME280;39936;51.058;17.220;2023-08-08T08:04:55;101374.19;;;16.36;56.96
54022;BME280;39936;51.058;17.220;2023-08-08T08:08:13;101370.19;;;16.35;57.15
54022;BME280;39936;51.058;17.220;2023-08-08T08:11:33;101361.43;;;16.71;58.51
54022;BME280;39936;51.058;17.220;2023-08-08T08:14:49;101349.50;;;17.16;57.83
54022;BME280;39936;51.058;17.220;2023-08-08T08:18:07;101348.03;;;17.54;57.31
54022;BME280;39936;51.058;17.220;2023-08-08T08:21:27;101340.66;;;17.75;57.31
54022;BME280;39936;51.058;17.220;2023-08-08T08:25:05;101330.64;;;18.04;56.10
54022;BME280;39936;51.058;17.220;2023-08-08T08:28:45;101327.04;;;18.44;53.42
54022;BME280;39936;51.058;17.220;2023-08-08T08:32:00;101333.39;;;18.10;53.54
54022;BME280;39936;51.058;17.220;2023-08-08T08:39:20;101324.92;;;18.27;52.34
54022;BME280;39936;51.058;17.220;2023-08-08T08:42:42;101318.79;;;18.31;51.18
54022;BME280;39936;51.058;17.220;2023-08-08T08:46:22;101322.30;;;18.11;51.73
54022;BME280;39936;51.058;17.220;2023-08-08T08:49:59;101333.00;;;17.75;50.81
54022;BME280;39936;51.058;17.220;2023-08-08T08:53:31;101334.67;;;17.80;50.47
54022;BME280;39936;51.058;17.220;2023-08-08T08:57:05;101340.39;;;17.55;52.38
54022;BME280;39936;51.058;17.220;2023-08-08T09:00:23;101338.18;;;17.39;50.78
54022;BME280;39936;51.058;17.220;2023-08-08T09:03:52;101335.28;;;17.14;51.98
54022;BME280;39936;51.058;17.220;2023-08-08T09:07:10;101339.84;;;17.04;52.93
54022;BME280;39936;51.058;17.220;2023-08-08T09:10:49;101334.67;;;17.21;53.38
54022;BME280;39936;51.058;17.220;2023-08-08T09:18:07;101320.91;;;17.58;53.31
54022;BME280;39936;51.058;17.220;2023-08-08T09:21:52;101333.92;;;17.64;52.22
54022;BME280;39936;51.058;17.220;2023-08-08T09:25:11;101327.59;;;18.01;51.91
54022;BME280;39936;51.058;17.220;2023-08-08T09:28:58;101331.95;;;18.20;50.49
54022;BME280;39936;51.058;17.220;2023-08-08T09:32:15;101333.54;;;18.11;50.51
54022;BME280;39936;51.058;17.220;2023-08-08T09:36:04;101307.98;;;17.63;49.48
54022;BME280;39936;51.058;17.220;2023-08-08T09:40:25;101336.59;;;17.70;50.99
54022;BME280;39936;51.058;17.220;2023-08-08T09:44:01;101343.30;;;17.57;52.61
54022;BME280;39936;51.058;17.220;2023-08-08T09:47:22;101340.89;;;17.59;52.54
54022;BME280;39936;51.058;17.220;2023-08-08T09:50:59;101342.84;;;17.94;53.03
54022;BME280;39936;51.058;17.220;2023-08-08T09:54:43;101339.60;;;18.26;52.34
54022;BME280;39936;51.058;17.220;2023-08-08T09:58:21;101333.02;;;18.28;50.87
54022;BME280;39936;51.058;17.220;2023-08-08T10:01:48;101322.78;;;18.25;51.34
54022;BME280;39936;51.058;17.220;2023-08-08T10:05:57;101328.83;;;18.46;53.50
54022;BME280;39936;51.058;17.220;2023-08-08T10:09:35;101327.11;;;18.43;52.08
54022;BME280;39936;51.058;17.220;2023-08-08T10:13:22;101329.70;;;18.48;52.30
54022;BME280;39936;51.058;17.220;2023-08-08T10:16:39;101321.42;;;17.92;52.26
54022;BME280;39936;51.058;17.220;2023-08-08T10:20:20;101335.15;;;17.87;54.59
54022;BME280;39936;51.058;17.220;2023-08-08T10:30:56;101337.96;;;17.77;53.49
54022;BME280;39936;51.058;17.220;2023-08-08T10:34:42;101330.80;;;17.76;54.71
54022;BME280;39936;51.058;17.220;2023-08-08T10:38:22;101332.36;;;18.16;54.62
54022;BME280;39936;51.058;17.220;2023-08-08T10:41:48;101335.17;;;18.33;53.60
54022;BME280;39936;51.058;17.220;2023-08-08T10:45:13;101324.73;;;18.43;53.99
54022;BME280;39936;51.058;17.220;2023-08-08T10:48:51;101329.05;;;18.48;55.80
54022;BME280;39936;51.058;17.220;2023-08-08T10:52:20;101336.56;;;18.45;54.92
54022;BME280;39936;51.058;17.220;2023-08-08T10:56:02;101328.02;;;18.37;53.68
54022;BME280;39936;51.058;17.220;2023-08-08T10:59:26;101322.74;;;18.94;55.37
54022;BME280;39936;51.058;17.220;2023-08-08T11:03:01;101310.58;;;19.33;54.24
54022;BME280;39936;51.058;17.220;2023-08-08T11:06:40;101315.84;;;19.11;50.34
54022;BME280;39936;51.058;17.220;2023-08-08T11:10:23;101307.32;;;19.04;50.24
54022;BME280;39936;51.058;17.220;2023-08-08T11:13:51;101319.82;;;18.83;50.64
54022;BME280;39936;51.058;17.220;2023-08-08T11:18:03;101315.97;;;18.75;51.64
54022;BME280;39936;51.058;17.220;2023-08-08T11:21:29;101301.69;;;18.37;52.71
54022;BME280;39936;51.058;17.220;2023-08-08T11:24:46;101319.34;;;18.60;54.32
54022;BME280;39936;51.058;17.220;2023-08-08T11:28:39;101314.83;;;18.65;53.83
54022;BME280;39936;51.058;17.220;2023-08-08T11:32:27;101313.63;;;18.66;55.06
54022;BME280;39936;51.058;17.220;2023-08-08T11:36:16;101305.67;;;18.67;55.14
54022;BME280;39936;51.058;17.220;2023-08-08T11:39:37;101312.39;;;18.97;54.56
54022;BME280;39936;51.058;17.220;2023-08-08T11:42:52;101310.59;;;18.98;54.91
54022;BME280;39936;51.058;17.220;2023-08-08T11:47:08;101305.69;;;18.74;54.50
54022;BME280;39936;51.058;17.220;2023-08-08T11:50:48;101309.79;;;18.65;55.54
54022;BME280;39936;51.058;17.220;2023-08-08T11:54:37;101305.46;;;18.72;55.20
54022;BME280;39936;51.058;17.220;2023-08-08T11:58:29;101272.41;;;18.69;55.84
54022;BME280;39936;51.058;17.220;2023-08-08T12:02:08;101293.07;;;19.17;56.07
54022;BME280;39936;51.058;17.220;2023-08-08T12:05:38;101266.57;;;19.12;53.96
54022;BME280;39936;51.058;17.220;2023-08-08T12:09:18;101296.38;;;19.29;53.48
54022;BME280;39936;51.058;17.220;2023-08-08T12:12:45;101299.55;;;19.11;53.12
54022;BME280;39936;51.058;17.220;2023-08-08T12:16:05;101313.88;;;18.70;54.90
54022;BME280;39936;51.058;17.220;2023-08-08T12:19:29;101312.91;;;18.63;54.11
54022;BME280;39936;51.058;17.220;2023-08-08T12:26:57;101306.77;;;18.78;55.69
54022;BME280;39936;51.058;17.220;2023-08-08T12:30:39;101307.39;;;18.69;56.00
54022;BME280;39936;51.058;17.220;2023-08-08T12:33:57;101298.42;;;19.01;56.51
54022;BME280;39936;51.058;17.220;2023-08-08T12:37:44;101298.07;;;19.46;53.46
54022;BME280;39936;51.058;17.220;2023-08-08T12:41:13;101289.05;;;19.86;53.58
54022;BME280;39936;51.058;17.220;2023-08-08T12:44:33;101290.81;;;19.65;51.90
54022;BME280;39936;51.058;17.220;2023-08-08T12:47:48;101291.65;;;19.34;50.75
54022;BME280;39936;51.058;17.220;2023-08-08T12:51:08;101300.45;;;18.82;51.44
54022;BME280;39936;51.058;17.220;2023-08-08T12:54:41;101290.28;;;18.76;53.57
54022;BME280;39936;51.058;17.220;2023-08-08T12:58:07;101290.79;;;18.89;54.81
54022;BME280;39936;51.058;17.220;2023-08-08T13:01:36;101261.22;;;19.22;52.78
54022;BME280;39936;51.058;17.220;2023-08-08T13:05:19;101270.84;;;19.45;52.34
54022;BME280;39936;51.058;17.220;2023-08-08T13:08:40;101256.09;;;19.12;50.02
54022;BME280;39936;51.058;17.220;2023-08-08T13:12:27;101285.12;;;19.21;50.21
54022;BME280;39936;51.058;17.220;2023-08-08T13:16:04;101287.87;;;18.85;52.02
54022;BME280;39936;51.058;17.220;2023-08-08T13:19:37;101284.66;;;18.97;53.29
54022;BME280;39936;51.058;17.220;2023-08-08T13:23:13;101280.11;;;19.15;51.49
54022;BME280;39936;51.058;17.220;2023-08-08T13:30:23;101277.09;;;19.05;50.50
54022;BME280;39936;51.058;17.220;2023-08-08T13:34:11;101274.54;;;18.96;51.69
54022;BME280;39936;51.058;17.220;2023-08-08T13:38:34;101276.45;;;18.86;51.63
54022;BME280;39936;51.058;17.220;2023-08-08T13:41:52;101278.48;;;18.96;51.64
54022;BME280;39936;51.058;17.220;2023-08-08T13:45:54;101278.38;;;19.00;50.72
54022;BME280;39936;51.058;17.220;2023-08-08T13:49:31;101266.80;;;18.94;51.13
54022;BME280;39936;51.058;17.220;2023-08-08T13:53:10;101282.13;;;18.82;52.59
54022;BME280;39936;51.058;17.220;2023-08-08T13:57:20;101283.65;;;18.60;52.60
54022;BME280;39936;51.058;17.220;2023-08-08T14:01:08;101279.31;;;18.44;52.98
54022;BME280;39936;51.058;17.220;2023-08-08T14:04:25;101278.10;;;18.62;53.67
54022;BME280;39936;51.058;17.220;2023-08-08T14:07:38;101274.53;;;18.87;52.32
54022;BME280;39936;51.058;17.220;2023-08-08T14:11:31;101270.23;;;19.09;52.25
54022;BME280;39936;51.058;17.220;2023-08-08T14:15:19;101265.53;;;19.31;51.52
54022;BME280;39936;51.058;17.220;2023-08-08T14:18:38;101270.34;;;19.44;52.80
54022;BME280;39936;51.058;17.220;2023-08-08T14:22:06;101271.53;;;19.61;51.72
54022;BME280;39936;51.058;17.220;2023-08-08T14:29:43;101273.89;;;19.57;50.09
54022;BME280;39936;51.058;17.220;2023-08-08T14:34:14;101271.37;;;19.58;49.29
54022;BME280;39936;51.058;17.220;2023-08-08T14:38:38;101272.46;;;19.42;50.00
54022;BME280;39936;51.058;17.220;2023-08-08T14:42:15;101269.32;;;19.45;49.10
54022;BME280;39936;51.058;17.220;2023-08-08T14:45:38;101269.70;;;19.52;50.37
54022;BME280;39936;51.058;17.220;2023-08-08T14:49:17;101265.30;;;19.68;51.10
54022;BME280;39936;51.058;17.220;2023-08-08T14:53:23;101241.47;;;19.74;50.60
54022;BME280;39936;51.058;17.220;2023-08-08T14:56:40;101269.34;;;20.02;49.99
54022;BME280;39936;51.058;17.220;2023-08-08T15:00:28;101267.05;;;19.95;50.65
54022;BME280;39936;51.058;17.220;2023-08-08T15:03:43;101250.60;;;19.77;52.17
54022;BME280;39936;51.058;17.220;2023-08-08T15:06:57;101259.45;;;19.78;50.42
54022;BME280;39936;51.058;17.220;2023-08-08T15:10:59;101248.95;;;20.04;51.26
54022;BME280;39936;51.058;17.220;2023-08-08T15:14:41;101253.50;;;20.27;51.25
54022;BME280;39936;51.058;17.220;2023-08-08T15:18:15;101244.84;;;20.49;48.54
54022;BME280;39936;51.058;17.220;2023-08-08T15:21:53;101248.13;;;20.51;49.16
54022;BME280;39936;51.058;17.220;2023-08-08T15:25:10;101234.70;;;20.55;48.88
54022;BME280;39936;51.058;17.220;2023-08-08T15:28:55;101250.31;;;20.56;50.23
54022;BME280;39936;51.058;17.220;2023-08-08T15:32:31;101253.13;;;20.47;50.22
54022;BME280;39936;51.058;17.220;2023-08-08T15:36:11;101249.16;;;20.14;49.85
54022;BME280;39936;51.058;17.220;2023-08-08T15:39:49;101257.79;;;20.15;50.68
54022;BME280;39936;51.058;17.220;2023-08-08T15:43:52;101261.10;;;20.01;51.03
54022;BME280;39936;51.058;17.220;2023-08-08T15:47:10;101263.47;;;19.89;51.43
54022;BME280;39936;51.058;17.220;2023-08-08T15:50:49;101264.41;;;19.65;52.05
54022;BME280;39936;51.058;17.220;2023-08-08T15:54:05;101263.27;;;19.66;51.95
54022;BME280;39936;51.058;17.220;2023-08-08T15:57:39;101264.10;;;19.74;52.58
54022;BME280;39936;51.058;17.220;2023-08-08T16:01:08;101261.09;;;19.82;53.05
54022;BME280;39936;51.058;17.220;2023-08-08T16:04:27;101258.09;;;19.87;53.51
54022;BME280;39936;51.058;17.220;2023-08-08T16:08:04;101253.87;;;19.93;52.34
54022;BME280;39936;51.058;17.220;2023-08-08T16:11:33;101255.05;;;19.87;53.17
54022;BME280;39936;51.058;17.220;2023-08-08T16:15:24;101250.14;;;19.92;53.32
54022;BME280;39936;51.058;17.220;2023-08-08T16:18:42;101244.68;;;19.87;53.62
54022;BME280;39936;51.058;17.220;2023-08-08T16:22:01;101253.39;;;19.83;53.81
54022;BME280;39936;51.058;17.220;2023-08-08T16:25:20;101256.49;;;19.70;54.18
54022;BME280;39936;51.058;17.220;2023-08-08T16:28:58;101251.89;;;19.54;54.61
54022;BME280;39936;51.058;17.220;2023-08-08T16:33:21;101250.52;;;19.57;55.75
54022;BME280;39936;51.058;17.220;2023-08-08T16:36:53;101244.12;;;19.66;55.82
54022;BME280;39936;51.058;17.220;2023-08-08T16:40:12;101245.02;;;19.62;55.18
54022;BME280;39936;51.058;17.220;2023-08-08T16:48:09;101242.27;;;19.32;54.26
54022;BME280;39936;51.058;17.220;2023-08-08T16:55:51;101243.77;;;19.33;54.04
54022;BME280;39936;51.058;17.220;2023-08-08T16:59:21;101251.70;;;18.98;55.80
54022;BME280;39936;51.058;17.220;2023-08-08T17:03:41;101256.99;;;18.61;57.45
54022;BME280;39936;51.058;17.220;2023-08-08T17:07:28;101250.61;;;18.14;58.96
54022;BME280;39936;51.058;17.220;2023-08-08T17:10:44;101265.84;;;17.86;61.47
54022;BME280;39936;51.058;17.220;2023-08-08T17:13:59;101266.80;;;17.62;62.93
54022;BME280;39936;51.058;17.220;2023-08-08T17:17:59;101266.53;;;17.39;63.21
54022;BME280;39936;51.058;17.220;2023-08-08T17:25:09;101269.85;;;17.10;63.63
54022;BME280;39936;51.058;17.220;2023-08-08T17:28:27;101265.91;;;17.07;63.93
54022;BME280;39936;51.058;17.220;2023-08-08T17:32:30;101268.59;;;17.02;65.16
54022;BME280;39936;51.058;17.220;2023-08-08T17:36:05;101279.22;;;16.77;66.07
54022;BME280;39936;51.058;17.220;2023-08-08T17:40:07;101271.59;;;16.46;67.33
54022;BME280;39936;51.058;17.220;2023-08-08T17:43:25;101282.21;;;16.35;68.69
54022;BME280;39936;51.058;17.220;2023-08-08T17:47:04;101280.63;;;16.36;68.77
54022;BME280;39936;51.058;17.220;2023-08-08T17:50:56;101285.95;;;16.06;70.03
54022;BME280;39936;51.058;17.220;2023-08-08T17:54:21;101294.48;;;15.93;71.37
54022;BME280;39936;51.058;17.220;2023-08-08T17:58:23;101292.87;;;15.76;72.25
54022;BME280;39936;51.058;17.220;2023-08-08T18:02:13;101294.40;;;15.67;73.52
54022;BME280;39936;51.058;17.220;2023-08-08T18:05:56;101291.46;;;15.60;73.68
54022;BME280;39936;51.058;17.220;2023-08-08T18:09:48;101294.80;;;15.63;73.62
54022;BME280;39936;51.058;17.220;2023-08-08T18:13:30;101299.85;;;15.64;74.26
54022;BME280;39936;51.058;17.220;2023-08-08T18:17:16;101306.40;;;15.70;74.49
54022;BME280;39936;51.058;17.220;2023-08-08T18:20:54;101318.98;;;15.58;76.38
54022;BME280;39936;51.058;17.220;2023-08-08T18:28:12;101341.58;;;15.53;77.14
54022;BME280;39936;51.058;17.220;2023-08-08T18:31:31;101337.67;;;15.53;77.53
54022;BME280;39936;51.058;17.220;2023-08-08T18:35:21;101353.14;;;15.62;76.03
54022;BME280;39936;51.058;17.220;2023-08-08T18:38:35;101350.48;;;15.64;76.75
54022;BME280;39936;51.058;17.220;2023-08-08T18:42:14;101347.01;;;15.58;76.71
54022;BME280;39936;51.058;17.220;2023-08-08T18:45:45;101341.26;;;15.58;76.90
54022;BME280;39936;51.058;17.220;2023-08-08T18:49:34;101343.59;;;15.60;77.78
54022;BME280;39936;51.058;17.220;2023-08-08T18:53:15;101351.59;;;15.54;78.70
54022;BME280;39936;51.058;17.220;2023-08-08T18:57:05;101354.58;;;15.57;78.52
54022;BME280;39936;51.058;17.220;2023-08-08T19:00:38;101361.70;;;15.64;78.39
54022;BME280;39936;51.058;17.220;2023-08-08T19:04:10;101367.29;;;15.66;79.12
54022;BME280;39936;51.058;17.220;2023-08-08T19:07:47;101347.20;;;15.48;79.52
54022;BME280;39936;51.058;17.220;2023-08-08T19:11:07;101400.15;;;15.53;78.32
54022;BME280;39936;51.058;17.220;2023-08-08T19:14:57;101410.06;;;15.61;77.71
54022;BME280;39936;51.058;17.220;2023-08-08T19:19:03;101418.96;;;15.58;73.88
54022;BME280;39936;51.058;17.220;2023-08-08T19:22:48;101430.34;;;15.20;80.51
54022;BME280;39936;51.058;17.220;2023-08-08T19:26:06;101401.67;;;14.45;84.68
54022;BME280;39936;51.058;17.220;2023-08-08T19:29:26;101415.21;;;14.17;89.90
54022;BME280;39936;51.058;17.220;2023-08-08T19:33:14;101403.32;;;13.97;91.40
54022;BME280;39936;51.058;17.220;2023-08-08T19:36:51;101381.92;;;13.89;91.29